createdAt,value
2022-08-07T00:01:43.026Z,0.75
2022-08-07T00:04:03.504Z,0.95
2022-08-07T00:06:37.105Z,1.70
2022-08-07T00:09:21.392Z,1.20
2022-08-07T00:11:58.766Z,1.10
2022-08-07T00:14:33.886Z,0.80
2022-08-07T00:17:07.590Z,0.57
2022-08-07T00:20:01.454Z,1.13
2022-08-07T00:22:35.615Z,1.10
2022-08-07T00:25:16.657Z,0.95
2022-08-07T00:27:52.272Z,0.80
2022-08-07T00:30:28.907Z,0.70
2022-08-07T00:33:03.221Z,0.80
2022-08-07T00:35:36.897Z,1.15
2022-08-07T00:38:10.343Z,0.95
2022-08-07T00:40:46.592Z,1.05
2022-08-07T00:44:01.016Z,1.05
2022-08-07T00:46:15.350Z,1.17
2022-08-07T00:48:49.863Z,1.08
2022-08-07T00:51:27.917Z,0.90
2022-08-07T00:54:19.803Z,0.80
2022-08-07T00:56:54.041Z,0.95
2022-08-07T00:59:35.515Z,1.25
2022-08-07T01:02:28.854Z,1.10
2022-08-07T01:05:19.073Z,0.90
2022-08-07T01:07:55.256Z,0.70
2022-08-07T01:10:28.965Z,1.17
2022-08-07T01:13:02.806Z,1.20
2022-08-07T01:16:05.457Z,0.93
2022-08-07T01:18:33.519Z,0.75
2022-08-07T01:21:17.589Z,1.20
2022-08-07T01:23:58.242Z,0.63
2022-08-07T01:26:32.349Z,1.25
2022-08-07T01:29:06.523Z,1.40
2022-08-07T01:31:42.629Z,1.10
2022-08-07T01:34:20.498Z,0.57
2022-08-07T01:37:09.937Z,0.90
2022-08-07T01:39:47.596Z,1.02
2022-08-07T01:42:38.538Z,1.02
2022-08-07T01:45:18.500Z,0.80
2022-08-07T01:48:19.182Z,0.70
2022-08-07T01:50:58.937Z,0.98
2022-08-07T01:54:12.729Z,1.00
2022-08-07T01:56:42.175Z,1.05
2022-08-07T01:59:31.159Z,1.38
2022-08-07T02:02:11.261Z,1.13
2022-08-07T02:05:08.760Z,0.50
2022-08-07T02:07:52.355Z,1.13
2022-08-07T02:10:35.954Z,0.90
2022-08-07T02:13:17.634Z,0.70
2022-08-07T02:16:02.058Z,0.70
2022-08-07T02:18:47.263Z,1.52
2022-08-07T02:21:22.205Z,0.73
2022-08-07T02:23:55.889Z,1.20
2022-08-07T02:26:34.480Z,0.90
2022-08-07T02:29:13.724Z,1.00
2022-08-07T02:31:50.648Z,0.90
2022-08-07T02:34:24.585Z,1.10
2022-08-07T02:37:03.085Z,1.23
2022-08-07T02:40:12.155Z,0.98
2022-08-07T02:42:42.650Z,1.30
2022-08-07T02:45:57.707Z,0.80
2022-08-07T02:48:15.615Z,1.50
2022-08-07T02:50:54.639Z,0.93
2022-08-07T02:53:38.686Z,1.20
2022-08-07T02:56:21.643Z,0.88
2022-08-07T02:59:01.492Z,0.95
2022-08-07T03:01:40.002Z,1.23
2022-08-07T03:04:19.630Z,1.45
2022-08-07T03:06:54.188Z,1.73
2022-08-07T03:09:42.216Z,1.10
2022-08-07T03:12:22.726Z,1.38
2022-08-07T03:15:12.267Z,1.25
2022-08-07T03:17:53.530Z,1.23
2022-08-07T03:20:29.110Z,1.08
2022-08-07T03:23:04.171Z,1.40
2022-08-07T03:25:42.046Z,1.10
2022-08-07T03:28:38.147Z,1.27
2022-08-07T03:31:24.544Z,1.58
2022-08-07T03:34:04.414Z,1.48
2022-08-07T03:36:41.756Z,1.25
2022-08-07T03:39:18.344Z,2.03
2022-08-07T03:42:13.224Z,1.15
2022-08-07T03:44:53.466Z,1.20
2022-08-07T03:47:47.922Z,1.00
2022-08-07T03:50:28.413Z,1.58
2022-08-07T03:53:04.007Z,0.93
2022-08-07T03:55:53.025Z,1.90
2022-08-07T03:59:07.869Z,1.80
2022-08-07T04:01:33.199Z,1.30
2022-08-07T04:04:17.229Z,1.10
2022-08-07T04:06:54.061Z,2.00
2022-08-07T04:09:45.117Z,1.10
2022-08-07T04:12:29.010Z,1.23
2022-08-07T04:15:04.937Z,1.52
2022-08-07T04:18:56.470Z,1.80
2022-08-07T04:20:39.493Z,1.60
2022-08-07T04:23:43.422Z,1.35
2022-08-07T04:26:23.124Z,1.50
2022-08-07T04:29:03.090Z,1.30
2022-08-07T04:32:03.325Z,1.15
2022-08-07T04:34:33.215Z,1.20
2022-08-07T04:37:20.243Z,1.25
2022-08-07T04:39:56.647Z,1.33
2022-08-07T04:42:34.581Z,1.45
2022-08-07T04:45:11.826Z,1.38
2022-08-07T04:48:01.027Z,1.33
2022-08-07T04:50:52.822Z,1.15
2022-08-07T04:54:02.049Z,1.42
2022-08-07T04:58:15.549Z,1.13
2022-08-07T05:00:10.672Z,1.35
2022-08-07T05:02:36.635Z,1.20
2022-08-07T05:05:52.764Z,1.65
2022-08-07T05:09:00.072Z,0.93
2022-08-07T05:11:57.333Z,1.05
2022-08-07T05:14:52.510Z,1.30
2022-08-07T05:17:51.466Z,1.55
2022-08-07T05:20:24.814Z,1.33
2022-08-07T05:23:09.095Z,1.25
2022-08-07T05:26:10.549Z,0.88
2022-08-07T05:28:50.144Z,1.27
2022-08-07T05:31:34.933Z,1.33
2022-08-07T05:34:13.429Z,1.52
2022-08-07T05:36:53.811Z,0.95
2022-08-07T05:40:18.114Z,1.00
2022-08-07T05:42:33.693Z,0.98
2022-08-07T05:45:26.054Z,1.20
2022-08-07T05:48:10.636Z,1.40
2022-08-07T05:50:50.644Z,1.23
2022-08-07T05:54:13.868Z,1.13
2022-08-07T05:56:28.344Z,1.05
2022-08-07T05:59:09.599Z,1.30
2022-08-07T06:01:46.489Z,1.35
2022-08-07T06:04:29.798Z,1.10
2022-08-07T06:07:06.197Z,1.67
2022-08-07T06:10:04.745Z,0.77
2022-08-07T06:12:36.901Z,1.48
2022-08-07T06:15:16.025Z,1.55
2022-08-07T06:17:55.359Z,1.05
2022-08-07T06:20:51.008Z,1.27
2022-08-07T06:24:38.211Z,1.10
2022-08-07T06:26:19.904Z,1.33
2022-08-07T06:28:57.057Z,1.10
2022-08-07T06:31:47.079Z,1.40
2022-08-07T06:34:29.617Z,1.30
2022-08-07T06:37:04.824Z,1.13
2022-08-07T06:40:15.683Z,1.17
2022-08-07T06:42:48.026Z,1.10
2022-08-07T06:45:33.332Z,1.08
2022-08-07T06:48:11.400Z,1.10
2022-08-07T06:50:51.138Z,1.00
2022-08-07T06:55:28.227Z,1.23
2022-08-07T06:56:39.384Z,1.08
2022-08-07T07:00:11.759Z,1.20
2022-08-07T07:02:54.491Z,1.25
2022-08-07T07:06:03.226Z,0.88
2022-08-07T07:08:28.385Z,1.00
2022-08-07T07:11:13.138Z,0.90
2022-08-07T07:14:02.335Z,0.75
2022-08-07T07:16:50.619Z,0.90
2022-08-07T07:19:57.138Z,1.10
2022-08-07T07:22:33.956Z,1.42
2022-08-07T07:26:34.857Z,0.90
2022-08-07T07:28:29.752Z,1.10
2022-08-07T07:31:17.209Z,1.00
2022-08-07T07:34:02.510Z,0.80
2022-08-07T07:36:40.393Z,0.90
2022-08-07T07:39:17.153Z,0.70
2022-08-07T07:42:13.406Z,0.90
2022-08-07T07:44:49.672Z,0.88
2022-08-07T07:47:25.582Z,0.95
2022-08-07T07:50:29.718Z,0.90
2022-08-07T07:52:54.817Z,0.90
2022-08-07T07:55:37.681Z,0.98
2022-08-07T07:58:22.669Z,1.15
2022-08-07T08:00:56.944Z,1.15
2022-08-07T08:04:10.512Z,0.90
2022-08-07T08:06:29.165Z,1.02
2022-08-07T08:09:08.106Z,0.75
2022-08-07T08:12:00.136Z,1.73
2022-08-07T08:14:38.562Z,1.30
2022-08-07T08:17:58.294Z,0.85
2022-08-07T08:20:19.184Z,0.90
2022-08-07T08:23:16.377Z,1.00
2022-08-07T08:26:10.377Z,0.80
2022-08-07T08:28:46.219Z,1.08
2022-08-07T08:31:59.221Z,1.42
2022-08-07T08:34:29.025Z,0.98
2022-08-07T08:37:09.918Z,0.60
2022-08-07T08:39:59.674Z,0.80
2022-08-07T08:42:40.325Z,0.70
2022-08-07T08:45:21.127Z,0.93
2022-08-07T08:48:10.703Z,1.10
2022-08-07T08:50:51.666Z,0.73
2022-08-07T08:53:34.512Z,0.77
2022-08-07T08:58:54.581Z,0.70
2022-08-07T09:01:40.158Z,0.90
2022-08-07T09:04:25.701Z,1.10
2022-08-07T09:07:07.268Z,0.80
2022-08-07T09:09:57.202Z,0.68
2022-08-07T09:12:53.759Z,0.47
2022-08-07T09:16:23.252Z,1.23
2022-08-07T09:18:58.209Z,0.77
2022-08-07T09:22:10.138Z,1.00
2022-08-07T09:25:00.580Z,0.90
2022-08-07T09:27:59.983Z,1.00
2022-08-07T09:30:54.371Z,0.95
2022-08-07T09:33:56.968Z,0.90
2022-08-07T09:36:37.169Z,0.70
2022-08-07T09:39:54.016Z,1.20
2022-08-07T09:42:39.050Z,0.73
2022-08-07T09:47:24.103Z,0.52
2022-08-07T09:48:24.039Z,0.98
2022-08-07T09:52:10.949Z,0.80
2022-08-07T09:54:27.072Z,0.70
2022-08-07T09:57:46.676Z,0.85
2022-08-07T10:00:29.755Z,0.75
2022-08-07T10:04:05.371Z,0.90
2022-08-07T10:06:49.086Z,0.80
2022-08-07T10:10:00.310Z,0.68
2022-08-07T10:12:53.179Z,0.90
2022-08-07T10:15:44.644Z,0.80
2022-08-07T10:18:40.732Z,1.00
2022-08-07T10:22:14.137Z,0.77
2022-08-07T10:24:39.605Z,0.95
2022-08-07T10:27:45.717Z,0.80
2022-08-07T10:30:27.074Z,0.63
2022-08-07T10:34:06.855Z,0.80
2022-08-07T10:36:42.685Z,0.70
2022-08-07T10:39:42.007Z,1.08
2022-08-07T10:42:38.933Z,0.85
2022-08-07T10:45:44.568Z,0.90
2022-08-07T10:48:35.629Z,0.60
2022-08-07T10:51:16.929Z,0.68
2022-08-07T10:54:15.032Z,0.70
2022-08-07T10:57:04.593Z,0.57
2022-08-07T11:00:00.104Z,1.10
2022-08-07T11:02:41.525Z,1.05
2022-08-07T11:05:35.826Z,0.77
2022-08-07T11:08:36.230Z,1.00
2022-08-07T11:11:20.327Z,1.20
2022-08-07T11:14:46.452Z,1.17
2022-08-07T11:17:02.291Z,0.90
2022-08-07T11:19:48.234Z,0.93
2022-08-07T11:22:37.142Z,1.40
2022-08-07T11:25:25.706Z,0.60
2022-08-07T11:28:15.394Z,0.70
2022-08-07T11:30:56.373Z,1.23
2022-08-07T11:33:53.729Z,0.65
2022-08-07T11:36:42.018Z,1.10
2022-08-07T11:39:25.160Z,0.60
2022-08-07T11:42:19.250Z,0.60
2022-08-07T11:44:58.162Z,0.52
2022-08-07T11:47:56.053Z,1.10
2022-08-07T11:50:57.742Z,0.60
2022-08-07T11:54:00.585Z,0.57
2022-08-07T11:56:56.341Z,0.77
2022-08-07T12:00:11.340Z,0.47
2022-08-07T12:03:03.994Z,0.60
2022-08-07T12:05:50.323Z,0.95
2022-08-07T12:08:34.551Z,0.70
2022-08-07T12:11:21.046Z,0.85
2022-08-07T12:14:03.555Z,0.77
2022-08-07T12:16:44.003Z,0.60
2022-08-07T12:19:35.942Z,0.82
2022-08-07T12:22:47.247Z,0.93
2022-08-07T12:26:22.141Z,0.60
2022-08-07T12:28:58.084Z,0.65
2022-08-07T12:32:02.309Z,0.70
2022-08-07T12:34:37.049Z,0.70
2022-08-07T12:37:17.018Z,0.70
2022-08-07T12:40:01.008Z,1.13
2022-08-07T12:42:37.902Z,1.15
2022-08-07T12:45:30.486Z,0.57
2022-08-07T12:48:28.254Z,1.02
2022-08-07T12:51:17.656Z,0.88
2022-08-07T12:54:03.155Z,0.70
2022-08-07T12:57:00.066Z,1.23
2022-08-07T12:59:55.553Z,1.00
2022-08-07T13:02:43.408Z,0.93
2022-08-07T13:06:03.355Z,0.80
2022-08-07T13:08:44.952Z,0.90
2022-08-07T13:12:00.959Z,0.98
2022-08-07T13:14:46.876Z,0.85
2022-08-07T13:17:40.918Z,0.70
2022-08-07T13:20:27.886Z,0.80
2022-08-07T13:24:01.118Z,0.77
2022-08-07T13:26:15.980Z,0.80
2022-08-07T13:29:00.080Z,0.80
2022-08-07T13:31:54.903Z,0.93
2022-08-07T13:34:39.271Z,0.88
2022-08-07T13:37:32.069Z,1.40
2022-08-07T13:40:33.367Z,1.00
2022-08-07T13:43:12.907Z,0.70
2022-08-07T13:46:11.034Z,0.75
2022-08-07T13:48:58.267Z,0.90
2022-08-07T13:52:16.434Z,0.73
2022-08-07T13:54:33.606Z,0.68
2022-08-07T13:57:14.467Z,0.80
2022-08-07T13:59:59.844Z,0.82
2022-08-07T14:02:39.631Z,0.70
2022-08-07T14:05:37.164Z,0.55
2022-08-07T14:08:12.757Z,0.70
2022-08-07T14:11:01.888Z,1.05
2022-08-07T14:13:45.163Z,0.90
2022-08-07T14:16:27.250Z,0.82
2022-08-07T14:19:06.303Z,0.80
2022-08-07T14:22:04.115Z,0.80
2022-08-07T14:24:42.267Z,0.95
2022-08-07T14:28:11.041Z,0.70
2022-08-07T14:30:27.727Z,0.85
2022-08-07T14:33:08.315Z,0.40
2022-08-07T14:35:47.450Z,0.57
2022-08-07T14:38:31.393Z,0.57
2022-08-07T14:41:14.884Z,0.68
2022-08-07T14:43:58.780Z,0.50
2022-08-07T14:46:38.267Z,0.60
2022-08-07T14:49:56.924Z,0.80
2022-08-07T14:52:34.025Z,1.10
2022-08-07T14:55:17.727Z,0.70
2022-08-07T15:00:51.711Z,0.80
2022-08-07T15:06:25.926Z,0.50
2022-08-07T15:12:09.674Z,0.60
2022-08-07T15:14:55.877Z,0.60
2022-08-07T15:17:54.954Z,1.00
2022-08-07T15:20:54.647Z,0.60
2022-08-07T15:25:15.013Z,0.43
2022-08-07T15:26:36.613Z,0.77
2022-08-07T15:30:10.226Z,0.63
2022-08-07T15:32:11.788Z,0.70
2022-08-07T15:38:04.797Z,0.80
2022-08-07T15:40:39.625Z,0.90
2022-08-07T15:43:55.614Z,0.40
2022-08-07T15:50:04.972Z,0.60
2022-08-07T15:52:30.354Z,0.70
2022-08-07T15:55:11.462Z,0.90
2022-08-07T15:57:52.592Z,0.82
2022-08-07T16:00:40.057Z,0.60
2022-08-07T16:03:43.043Z,0.63
2022-08-07T16:06:15.050Z,0.88
2022-08-07T16:08:50.027Z,0.85
2022-08-07T16:11:40.193Z,0.70
2022-08-07T16:14:21.341Z,1.08
2022-08-07T16:17:14.845Z,0.68
2022-08-07T16:20:33.985Z,1.02
2022-08-07T16:23:53.066Z,0.80
2022-08-07T16:26:31.322Z,1.00
2022-08-07T16:30:05.625Z,0.98
2022-08-07T16:32:33.008Z,0.45
2022-08-07T16:35:57.086Z,0.50
2022-08-07T16:38:57.442Z,0.80
2022-08-07T16:42:03.371Z,0.90
2022-08-07T16:45:15.217Z,0.82
2022-08-07T16:49:04.190Z,0.82
2022-08-07T16:52:01.951Z,0.90
2022-08-07T16:54:55.397Z,0.80
2022-08-07T16:58:02.321Z,1.15
2022-08-07T17:00:40.528Z,0.90
2022-08-07T17:03:19.706Z,0.98
2022-08-07T17:06:31.429Z,0.80
2022-08-07T17:10:06.224Z,0.57
2022-08-07T17:12:34.259Z,1.02
2022-08-07T17:15:43.646Z,0.70
2022-08-07T17:18:29.274Z,0.73
2022-08-07T17:21:18.455Z,0.80
2022-08-07T17:24:00.599Z,0.50
2022-08-07T17:26:50.006Z,0.80
2022-08-07T17:30:15.524Z,0.88
2022-08-07T17:32:35.458Z,0.70
2022-08-07T17:35:49.873Z,0.75
2022-08-07T17:38:33.897Z,0.50
2022-08-07T17:41:12.347Z,0.80
2022-08-07T17:44:16.461Z,0.70
2022-08-07T17:47:17.021Z,1.03
2022-08-07T17:50:16.778Z,0.82
2022-08-07T17:52:59.594Z,1.02
2022-08-07T17:55:55.047Z,2.05
2022-08-07T17:58:46.335Z,2.20
2022-08-07T18:01:36.384Z,2.45
2022-08-07T18:04:19.965Z,2.40
2022-08-07T18:07:20.026Z,2.35
2022-08-07T18:10:09.840Z,2.08
2022-08-07T18:13:09.866Z,1.58
2022-08-07T18:15:55.793Z,1.17
2022-08-07T18:21:01.892Z,1.02
2022-08-07T18:21:51.785Z,1.42
2022-08-07T18:24:36.727Z,1.10
2022-08-07T18:27:52.301Z,0.90
2022-08-07T18:30:36.905Z,0.75
2022-08-07T18:33:55.382Z,1.10
2022-08-07T18:36:41.297Z,0.80
2022-08-07T18:40:08.709Z,1.08
2022-08-07T18:42:28.519Z,0.95
2022-08-07T18:45:39.802Z,0.80
2022-08-07T18:50:05.649Z,1.17
2022-08-07T18:52:33.742Z,0.90
2022-08-07T18:54:27.942Z,1.00
2022-08-07T18:57:30.112Z,1.48
2022-08-07T19:00:32.633Z,1.58
2022-08-07T19:03:11.810Z,1.35
2022-08-07T19:06:03.466Z,1.58
2022-08-07T19:08:50.821Z,1.95
2022-08-07T19:11:39.422Z,1.70
2022-08-07T19:14:51.162Z,1.50
2022-08-07T19:17:59.348Z,1.40
2022-08-07T19:21:08.985Z,1.27
2022-08-07T19:23:59.454Z,1.35
2022-08-07T19:27:09.467Z,1.73
2022-08-07T19:31:04.038Z,1.48
2022-08-07T19:32:44.291Z,1.67
2022-08-07T19:35:22.342Z,1.55
2022-08-07T19:37:59.527Z,1.67
2022-08-07T19:40:50.065Z,1.10
2022-08-07T19:43:49.291Z,1.60
2022-08-07T19:46:26.838Z,1.63
2022-08-07T19:49:07.179Z,1.60
2022-08-07T19:51:51.853Z,1.45
2022-08-07T19:54:31.937Z,1.35
2022-08-07T19:58:02.803Z,1.33
2022-08-07T20:00:10.934Z,1.70
2022-08-07T20:02:52.105Z,1.52
2022-08-07T20:05:30.896Z,1.67
2022-08-07T20:08:33.678Z,2.05
2022-08-07T20:11:10.850Z,1.38
2022-08-07T20:13:49.881Z,1.58
2022-08-07T20:16:34.639Z,1.27
2022-08-07T20:19:13.098Z,1.67
2022-08-07T20:21:48.418Z,1.73
2022-08-07T20:24:28.792Z,1.77
2022-08-07T20:27:07.512Z,2.13
2022-08-07T20:29:58.448Z,1.73
2022-08-07T20:32:40.168Z,2.33
2022-08-07T20:35:20.528Z,2.72
2022-08-07T20:38:00.845Z,2.75
2022-08-07T20:40:41.235Z,2.72
2022-08-07T20:43:19.595Z,2.28
2022-08-07T20:46:28.046Z,2.95
2022-08-07T20:49:54.481Z,2.67
2022-08-07T20:51:50.459Z,2.30
2022-08-07T20:54:29.934Z,3.22
2022-08-07T20:57:10.380Z,3.60
2022-08-07T21:00:06.702Z,3.80
2022-08-07T21:03:01.401Z,3.28
2022-08-07T21:05:52.879Z,3.38
2022-08-07T21:08:38.213Z,3.20
2022-08-07T21:11:16.891Z,3.63
2022-08-07T21:14:16.339Z,3.17
2022-08-07T21:16:56.970Z,3.30
2022-08-07T21:19:51.055Z,2.53
2022-08-07T21:22:44.745Z,2.25
2022-08-07T21:25:23.888Z,1.90
2022-08-07T21:28:11.272Z,2.45
2022-08-07T21:30:58.032Z,2.20
2022-08-07T21:33:41.488Z,1.92
2022-08-07T21:36:31.636Z,2.15
2022-08-07T21:39:45.609Z,2.03
2022-08-07T21:42:49.273Z,2.03
2022-08-07T21:46:09.068Z,2.40
2022-08-07T21:48:28.280Z,2.30
2022-08-07T21:51:19.763Z,2.67
2022-08-07T21:54:12.228Z,2.10
2022-08-07T21:56:59.819Z,1.98
2022-08-07T22:00:04.313Z,2.38
2022-08-07T22:02:45.095Z,2.40
2022-08-07T22:05:44.845Z,2.40
2022-08-07T22:08:20.908Z,2.15
2022-08-07T22:11:00.384Z,2.45
2022-08-07T22:13:51.233Z,2.50
2022-08-07T22:16:44.939Z,1.98
2022-08-07T22:19:29.616Z,2.38
2022-08-07T22:22:10.946Z,1.90
2022-08-07T22:25:03.350Z,1.70
2022-08-07T22:28:20.035Z,2.10
2022-08-07T22:30:41.622Z,2.15
2022-08-07T22:33:15.725Z,2.25
2022-08-07T22:35:57.403Z,2.88
2022-08-07T22:38:40.311Z,2.78
2022-08-07T22:41:29.267Z,1.80
2022-08-07T22:44:26.056Z,2.00
2022-08-07T22:47:52.094Z,1.50
2022-08-07T22:50:45.253Z,2.42
2022-08-07T22:54:07.110Z,1.65
2022-08-07T22:56:31.107Z,2.08
2022-08-07T22:59:36.504Z,1.17
2022-08-07T23:02:36.680Z,1.48
2022-08-07T23:06:07.024Z,2.00
2022-08-07T23:08:58.584Z,1.70
2022-08-07T23:12:03.163Z,1.88
2022-08-07T23:14:55.275Z,1.80
2022-08-07T23:17:45.049Z,2.20
2022-08-07T23:20:51.581Z,1.75
2022-08-07T23:24:06.357Z,1.70
2022-08-07T23:26:59.224Z,1.95
2022-08-07T23:30:38.838Z,1.67
2022-08-07T23:34:35.093Z,1.67
2022-08-07T23:36:34.497Z,2.30
2022-08-07T23:39:22.207Z,1.83
2022-08-07T23:42:15.682Z,1.50
2022-08-07T23:46:01.463Z,2.55
2022-08-07T23:48:37.110Z,1.45
2022-08-07T23:53:08.780Z,2.05
2022-08-07T23:54:19.950Z,1.75
2022-08-07T23:57:18.612Z,1.85
